Pagrindinis puslapis
METAR-TAF:

METAR-TAF

Oro uostai :

Laoag, Filipinai

platuma: 18-11N, ilguma: 120-32E, Aukštis: 4 m

Dabartinis oras

Ataskaita buvo paskelbta 1 valandą ir 0 minutes, ne 18:00 UTC
Vėjas 13 kt iš Šiaurės Rytų
Temperatūra 23°C
Drėgmė 73%
Slėgis 1016 hPa
Matomumas 10 km arba daugiau
Mažai debesys ne aukštis 1800 ft
Su prošvaistėmis ne aukštis 8000 ft

METAR: RPLI 171800Z 04013KT 9999 FEW018 BKN080 23/18 Q1016 NOSIG RMK A3000

Laikas: 03:00 (19:00 UTC)

Prognozė

Ataskaita buvo paskelbta 2 valandos ir 0 minutes, ne 17:00 UTC
Prognozė galioja nuo 17 metu 18 UTC su 18 metu 18 UTC
Vėjas 12 kt iš Šiaurės Rytų
Matomumas 10 km arba daugiau
Mažai debesys ne aukštis 1800 ft
Laikinai
nuo 18 metu 02 UTC su 18 metu 08 UTC
Vėjas 20 kt iš Šiaurės/Šiaurės Rytų
Mažai debesys ne aukštis 1800 ft
Išsisklaidę debesys ne aukštis 10000 ft

TAF: RPLI 171700Z 1718/1818 04012KT 9999 FEW018 TEMPO 1802/1808 03020KT FEW018 SCT100

Orai ataskaitas ir orų prognozės (METAR, TAF).

turimą stotys yra geltonos ir raudonos taškus žemėlapyje.

Perkelti pele per norėdami pamatyti stoties vardą.

Tada spustelėkite, norėdami matyti oro stebėjimo ir prognozės.

Norėdami pakeisti žemėlapį: spustelėkite ant žalios mygtukų su juodo kryžiaus žemyn,; žalią mygtuką su brūkšneliu, jei norite nutolinti; arba žalių rodyklių gretimoms žemėlapius.


METAR-TAF: